Terminal Aerodrome Forecast
Issued by NWS

Home | Current Version | Previous Version | Text Only | Print | Product List | Glossary On
Versions: 1 2 3 4 5 6 7 8 9 10 11 12 13
949
FTUS46 KMTR 251133
TAFSTS
TAF
KSTS 251133Z 2512/2612 34008KT P6SM FEW200
     FM252200 24007KT P6SM SCT150
     FM260100 21004KT P6SM FEW030 SCT150
     FM260500 20005KT P6SM BKN020 OVC050
     FM260700 21004KT 6SM -RA BR BKN015 OVC030=

USA.gov is the U.S. government's official web portal to all federal, state and local government web resources and services.